Airfield :
LOGIN :

Register | Disclaimer

   EN    FR    IT 

 










Legend :    VFR   Marginal VFR   IFR   Intensive IFR   Very Intensive IFR
Visi :
Ceiling :
>= 8 km
>= 3000ft
5 to 8 km
1000 to 3000 ft
1500m to 5 km
500 to 1000 ft
800 to 1500m
200 to 500 ft
< 800m
< 200 ft
Symbols :   Thunderstorms  Fog  Heavy snow  Heavy precipitations  Wind > 20 kt
SIGMETs :     Misc.  Thunderstorms  Icing  Turbulence  Mountain Waves  Volcanic Ashes






- Airport Elevation : 13 ft
- IATA code : OST


EBOS - Oostend bruges Int.

CURRENT METAR :
  • 251950Z 19006KT 8000 SCT048 09/07 Q1017 NOSIG

EXPIRED METARs :
  • 251920Z 18004KT 8000 FEW022 SCT047 09/07 Q1017 NOSIG
  • 251850Z 20004KT 160V220 7000 FEW022 09/07 Q1017 NOSIG
  • 251820Z 18004KT 7000 NSC 08/07 Q1017 NOSIG
  • 251750Z 18005KT 7000 NSC 08/07 Q1016 NOSIG
  • 251720Z 18006KT 7000 NSC 08/07 Q1016 NOSIG

TAF TAF EBOS
Valid from the 25 at 18:00 until the 27 at 00:00 UTC


251711Z 2518/2624 18008KT 9999 SCT020
BECMG 2600/2602 BKN012
PROB40
TEMPO 2602/2607 4000 -DZ BKN007
BECMG 2612/2614 BKN020



MET'MAP, your aeronautical weather chart ! - Copyright ORBIFLY December 2007 - Disclaimer

ORBIFLY MET'MAP TEAM :

Programming & Development : Alexandra Zaïnal
Concept & original design : Baudouin d'Aumeries
Assistance for programming : Marc-Olivier Méhu
Technical & hardware support : Manuel Goepfert

Contact : metmap@orbifly.com




SOURCES & CREDITS :

   NOAA